Rezekne, Latvia
Current Conditions -  °F | °C
As of 10:00 PM on Saturday 25 Oct 2014 (Local Time) from ULOO Reporting Station
Clear Clear  
Wind Chill: 22°   Ceiling: Unl
Heat Index: 30°   Visibility: 4mi
Dew Point: 18°   Wind: 9mph
Humidity: 60%   Direction: 180°S
Pressure: 30.39"   Gusts: NA
Location:  56.51°N, 27.32°E
Report Text: ULOO 251900Z 18004MPS P6000 NSC M01/M08 Q1029 19090070 NOSIGRMK QFE767
Loading
Personal Weather Stations






























Interactive Weather Map
Tropical Storm Tracking
New forecast layout! Learn more

10-Day Weather Forecast

Advertisements
Track Severe Weather on mobile